Time;durP1;ratioP1;P1;durP2;ratioP2;P2;SDS_P1;SDS_P2;PMS_P1;PMS_P2;Temp;Humidity;BMP_temperature;BMP_pressure;BME280_temperature;BME280_humidity;BME280_pressure;Samples;Min_cycle;Max_cycle;Signal;HPM_P1;HPM_P2
2022/03/18 00:02:24;;;;;;;;;;;5.10;99.90;;;;;;5061510;28;20068;-69
2022/03/18 00:04:51;;;;;;;9.90;3.95;;;5.10;99.90;;;;;;5034418;28;19917;-69
2022/03/18 00:07:17;;;;;;;;;;;5.10;99.90;;;;;;5052929;28;20068;-68
2022/03/18 00:09:42;;;;;;;17.08;4.40;;;5.10;99.90;;;;;;5060004;28;19919;-72
2022/03/18 00:12:12;;;;;;;18.57;4.40;;;5.00;99.90;;;;;;5034941;28;20136;-69
2022/03/18 00:14:40;;;;;;;15.68;4.53;;;5.00;99.90;;;;;;5056915;28;20900;-68
2022/03/18 00:17:08;;;;;;;15.77;4.85;;;5.00;99.90;;;;;;5059489;28;20075;-69
2022/03/18 00:19:34;;;;;;;20.45;5.57;;;5.10;99.90;;;;;;5053165;28;20110;-68
2022/03/18 00:22:01;;;;;;;14.57;4.45;;;5.00;99.90;;;;;;5038155;28;20045;-68
2022/03/18 00:24:33;;;;;;;10.07;4.43;;;5.10;99.90;;;;;;5110330;22;20048;-67
2022/03/18 00:27:03;;;;;;;13.82;5.10;;;5.00;99.90;;;;;;5045248;28;20136;-67
2022/03/18 00:29:30;;;;;;;13.60;5.95;;;5.00;99.90;;;;;;5044037;28;20048;-67
2022/03/18 00:31:56;;;;;;;14.57;5.78;;;5.00;99.90;;;;;;5045984;28;20397;-67
2022/03/18 00:34:22;;;;;;;13.68;4.57;;;5.10;99.90;;;;;;5046332;28;20033;-67
2022/03/18 00:36:48;;;;;;;12.57;4.65;;;5.00;99.90;;;;;;5046494;28;20496;-67
2022/03/18 00:39:14;;;;;;;18.05;5.45;;;5.00;99.90;;;;;;5044404;28;20048;-67
2022/03/18 00:41:41;;;;;;;13.45;4.40;;;5.00;99.90;;;;;;5048113;28;20433;-67
2022/03/18 00:44:07;;;;;;;11.32;4.18;;;5.00;99.90;;;;;;5047934;28;20545;-67
2022/03/18 00:46:32;;;;;;;14.83;4.90;;;5.00;99.90;;;;;;5047008;28;20113;-68
2022/03/18 00:54:27;;;;;;;12.75;4.65;;;4.90;99.90;;;;;;5044202;28;20080;-66
2022/03/18 00:56:52;;;;;;;14.45;5.78;;;4.90;99.90;;;;;;5047471;28;20143;-67
2022/03/18 00:59:18;;;;;;;13.50;4.77;;;4.90;99.90;;;;;;5046310;28;20033;-67
2022/03/18 01:01:43;;;;;;;8.57;4.27;;;4.90;99.90;;;;;;5046616;28;20037;-67
2022/03/18 01:04:09;;;;;;;19.63;4.60;;;4.90;99.90;;;;;;5045059;28;20032;-67
2022/03/18 01:06:35;;;;;;;10.67;5.07;;;4.90;99.90;;;;;;5044136;28;20041;-67
2022/03/18 01:09:03;;;;;;;13.00;5.57;;;4.90;99.90;;;;;;5044284;28;20069;-67
2022/03/18 01:11:31;;;;;;;13.00;5.15;;;4.90;99.90;;;;;;5044521;28;20413;-67
2022/03/18 01:13:57;;;;;;;18.30;4.82;;;4.90;99.90;;;;;;5046082;28;20056;-67
2022/03/18 01:16:23;;;;;;;13.10;5.17;;;4.90;99.90;;;;;;5043035;28;20615;-67
2022/03/18 01:18:49;;;;;;;14.90;4.50;;;4.90;99.90;;;;;;5048936;28;20099;-67
2022/03/18 01:21:45;;;;;;;13.93;4.60;;;4.90;99.90;;;;;;5053692;28;20045;-69
2022/03/18 01:24:27;;;;;;;20.35;5.60;;;4.90;99.90;;;;;;5063438;28;20106;-69
2022/03/18 01:32:14;;;;;;;;;;;;;;;;;;;;;
2022/03/18 01:34:46;;;;;;;;;;;;;;;;;;;;;
2022/03/18 01:37:49;;;;;;;13.93;5.75;;;4.90;99.90;;;;;;4921615;28;20264;-75
2022/03/18 01:41:33;;;;;;;14.43;5.95;;;5.00;99.90;;;;;;4842852;28;20114;-73
2022/03/18 01:51:31;;;;;;;10.68;4.40;;;4.90;99.90;;;;;;4920257;28;20054;-69
2022/03/18 01:57:32;;;;;;;11.70;5.13;;;4.90;99.90;;;;;;4971078;28;20053;-69
2022/03/18 02:00:33;;;;;;;11.77;4.38;;;4.90;99.90;;;;;;4845203;28;20089;-71
2022/03/18 02:03:51;;;;;;;12.98;4.40;;;4.90;99.90;;;;;;4934713;28;20126;-69
2022/03/18 02:06:37;;;;;;;16.02;6.13;;;4.90;99.90;;;;;;4961137;28;20057;-69
2022/03/18 02:10:10;;;;;;;12.93;4.70;;;4.90;99.90;;;;;;4986165;28;20034;-69
2022/03/18 02:12:55;;;;;;;12.15;5.50;;;4.90;99.90;;;;;;4895329;28;20561;-69
2022/03/18 02:15:21;;;;;;;13.80;5.80;;;4.90;99.90;;;;;;4965159;28;20054;-69
2022/03/18 02:17:47;;;;;;;12.50;5.35;;;4.90;99.90;;;;;;5009573;28;20221;-69
2022/03/18 02:20:13;;;;;;;11.23;4.90;;;4.90;99.90;;;;;;5042756;28;20040;-73
2022/03/18 02:22:40;;;;;;;11.87;4.87;;;4.90;99.90;;;;;;5039862;28;20080;-69
2022/03/18 02:25:12;;;;;;;14.05;4.72;;;4.90;99.90;;;;;;5040732;28;20063;-69
2022/03/18 02:27:38;;;;;;;14.20;4.88;;;4.80;99.90;;;;;;5041154;28;20045;-69
2022/03/18 02:30:06;;;;;;;11.43;5.82;;;4.90;99.90;;;;;;5045339;28;20032;-68
2022/03/18 02:32:32;;;;;;;14.57;5.13;;;4.80;99.90;;;;;;5044329;28;20235;-75
2022/03/18 02:34:58;;;;;;;16.27;5.53;;;4.90;99.90;;;;;;5034812;28;20124;-69
2022/03/18 02:37:24;;;;;;;11.67;5.43;;;4.90;99.90;;;;;;5037655;28;20481;-68
2022/03/18 02:39:49;;;;;;;13.60;5.27;;;4.80;99.90;;;;;;5044547;28;20060;-68
2022/03/18 02:42:15;;;;;;;20.97;6.40;;;4.80;99.90;;;;;;5046662;28;20210;-68
2022/03/18 02:44:41;;;;;;;13.10;5.60;;;4.80;99.90;;;;;;5044912;28;20059;-68
2022/03/18 02:47:06;;;;;;;13.50;4.63;;;4.80;99.90;;;;;;5048274;28;20295;-68
2022/03/18 02:49:35;;;;;;;12.45;4.90;;;4.80;99.90;;;;;;5041195;28;20135;-68
2022/03/18 02:52:00;;;;;;;13.23;4.87;;;4.80;99.90;;;;;;5037514;28;20462;-68
2022/03/18 02:54:26;;;;;;;14.47;4.83;;;4.80;99.90;;;;;;5041816;28;20037;-68
2022/03/18 02:56:52;;;;;;;9.53;4.63;;;4.80;99.90;;;;;;5045488;28;20045;-68
2022/03/18 02:59:17;;;;;;;15.57;6.47;;;4.80;99.90;;;;;;5044097;28;20527;-69
2022/03/18 03:01:43;;;;;;;11.63;5.97;;;4.80;99.90;;;;;;5043579;28;20040;-68
2022/03/18 03:04:09;;;;;;;10.90;5.45;;;4.80;99.90;;;;;;5056584;28;20524;-69
2022/03/18 03:09:19;;;;;;;9.40;4.60;;;4.70;99.90;;;;;;5039872;28;20045;-68
2022/03/18 03:11:45;;;;;;;12.98;4.88;;;4.80;99.90;;;;;;5045499;28;20319;-68
2022/03/18 03:14:12;;;;;;;15.50;5.40;;;4.70;99.90;;;;;;5043266;28;20035;-68
2022/03/18 03:16:38;;;;;;;14.75;5.30;;;4.80;99.90;;;;;;5045623;28;20055;-68
2022/03/18 03:19:03;;;;;;;17.73;5.93;;;4.70;99.90;;;;;;5041098;28;20053;-69
2022/03/18 03:21:30;;;;;;;15.07;5.20;;;4.70;99.90;;;;;;5040159;28;20123;-68
2022/03/18 03:23:56;;;;;;;11.10;5.35;;;4.70;99.90;;;;;;5043503;28;20045;-68
2022/03/18 03:26:22;;;;;;;13.32;4.82;;;4.70;99.90;;;;;;5040482;28;20127;-69
2022/03/18 03:28:47;;;;;;;12.00;5.07;;;4.70;99.90;;;;;;5042845;28;20498;-69
2022/03/18 03:31:13;;;;;;;9.83;4.47;;;4.70;99.90;;;;;;5046055;28;20043;-69
2022/03/18 03:33:39;;;;;;;17.00;5.87;;;4.70;99.90;;;;;;5040713;28;20044;-69
2022/03/18 03:36:05;;;;;;;16.13;6.20;;;4.70;99.90;;;;;;5042454;28;20064;-69
2022/03/18 03:38:30;;;;;;;14.65;5.65;;;4.70;99.90;;;;;;5039430;28;20033;-68
2022/03/18 03:40:56;;;;;;;12.93;5.67;;;4.70;99.90;;;;;;5043955;28;20029;-69
2022/03/18 03:43:21;;;;;;;9.00;4.83;;;4.70;99.90;;;;;;5039953;28;20119;-69
2022/03/18 03:45:50;;;;;;;12.33;5.17;;;4.70;99.90;;;;;;5042349;28;20040;-69
2022/03/18 03:48:15;;;;;;;20.08;5.03;;;4.70;99.90;;;;;;5044076;28;20131;-69
2022/03/18 03:50:41;;;;;;;17.83;5.67;;;4.80;99.90;;;;;;5041573;28;20116;-69
2022/03/18 03:53:08;;;;;;;14.00;5.80;;;4.80;99.90;;;;;;5039242;28;20056;-69
2022/03/18 03:55:39;;;;;;;16.45;5.50;;;4.90;99.90;;;;;;5023713;28;20486;-69
2022/03/18 03:58:08;;;;;;;14.50;5.78;;;4.90;99.90;;;;;;5042676;28;20081;-69
2022/03/18 04:00:38;;;;;;;9.73;4.75;;;4.90;99.90;;;;;;5041339;28;20041;-69
2022/03/18 04:03:05;;;;;;;11.35;5.03;;;4.90;99.90;;;;;;5043176;28;20047;-69
2022/03/18 04:05:34;;;;;;;12.52;5.57;;;5.00;99.90;;;;;;5042933;28;20128;-69
2022/03/18 04:08:01;;;;;;;17.25;5.10;;;5.00;99.90;;;;;;5040712;28;20056;-69
2022/03/18 04:10:27;;;;;;;14.07;5.10;;;5.00;99.90;;;;;;5038488;28;20048;-69
2022/03/18 04:12:54;;;;;;;13.87;5.40;;;5.00;99.90;;;;;;5041034;28;20066;-69
2022/03/18 04:15:19;;;;;;;;;;;5.10;99.90;;;;;;5041670;28;20524;-69
2022/03/18 04:17:47;;;;;;;13.38;5.22;;;5.10;99.90;;;;;;5041045;28;19917;-69
2022/03/18 04:20:23;;;;;;;14.15;5.47;;;5.10;99.90;;;;;;5041729;28;20071;-69
2022/03/18 04:22:52;;;;;;;10.32;5.30;;;5.10;99.90;;;;;;5041203;28;20041;-69
2022/03/18 04:25:18;;;;;;;10.63;4.65;;;5.20;99.90;;;;;;5042740;28;20043;-69
2022/03/18 04:27:44;;;;;;;10.07;4.93;;;5.20;99.90;;;;;;5037244;28;20044;-69
2022/03/18 04:30:12;;;;;;;14.57;5.33;;;5.20;99.90;;;;;;5044266;28;20044;-69
2022/03/18 04:32:38;;;;;;;9.30;4.57;;;5.20;99.90;;;;;;5042039;28;20072;-69
2022/03/18 04:35:08;;;;;;;13.05;5.95;;;5.20;99.90;;;;;;5040750;28;20045;-69
2022/03/18 04:37:34;;;;;;;14.90;5.47;;;5.20;99.90;;;;;;5038242;28;20068;-69
2022/03/18 04:39:59;;;;;;;11.83;5.20;;;5.20;99.90;;;;;;5040157;28;20513;-69
2022/03/18 04:42:25;;;;;;;13.70;5.93;;;5.20;99.90;;;;;;5045527;28;20307;-69
2022/03/18 04:44:51;;;;;;;10.60;5.47;;;5.20;99.90;;;;;;5059914;28;20563;-69
2022/03/18 04:47:17;;;;;;;12.13;4.95;;;5.20;99.90;;;;;;5046484;28;20049;-69
2022/03/18 04:49:43;;;;;;;11.27;5.00;;;5.20;99.90;;;;;;5048495;28;20041;-69
2022/03/18 04:52:12;;;;;;;13.95;5.85;;;5.20;99.90;;;;;;5043742;28;20067;-68
2022/03/18 04:54:37;;;;;;;12.07;6.72;;;5.20;99.90;;;;;;5046892;28;20049;-69
2022/03/18 04:57:15;;;;;;;12.87;5.73;;;5.10;99.90;;;;;;5040781;28;20060;-69
2022/03/18 04:59:41;;;;;;;9.27;5.43;;;5.20;99.90;;;;;;5045942;28;20432;-69
2022/03/18 05:02:08;;;;;;;12.35;5.40;;;5.10;99.90;;;;;;5044462;28;20505;-69
2022/03/18 05:04:34;;;;;;;11.30;5.97;;;5.10;99.90;;;;;;5043945;28;20130;-69
2022/03/18 05:06:59;;;;;;;17.33;5.80;;;5.20;99.90;;;;;;5049224;28;20041;-69
2022/03/18 05:09:25;;;;;;;11.37;5.70;;;5.10;99.90;;;;;;5041560;28;20037;-69
2022/03/18 05:11:51;;;;;;;14.97;5.47;;;5.10;99.90;;;;;;5047919;28;20484;-69
2022/03/18 05:14:17;;;;;;;13.32;6.50;;;5.00;99.90;;;;;;5045645;28;20091;-69
2022/03/18 05:16:43;;;;;;;13.55;5.97;;;5.00;99.90;;;;;;5044664;28;20041;-69
2022/03/18 05:19:09;;;;;;;9.00;5.57;;;5.00;99.90;;;;;;5041592;28;20041;-69
2022/03/18 05:21:36;;;;;;;13.85;5.40;;;4.90;99.90;;;;;;5046472;28;20045;-69
2022/03/18 05:24:02;;;;;;;10.20;6.10;;;4.90;99.90;;;;;;5045292;28;20072;-69
2022/03/18 05:26:28;;;;;;;20.23;7.30;;;4.90;99.90;;;;;;5043491;28;20125;-69
2022/03/18 05:28:53;;;;;;;14.20;7.60;;;4.90;99.90;;;;;;5042981;28;20501;-69
2022/03/18 05:31:19;;;;;;;15.63;6.93;;;4.90;99.90;;;;;;5033268;28;20448;-69
2022/03/18 05:33:44;;;;;;;13.80;6.77;;;4.80;99.90;;;;;;5044316;28;20448;-69
2022/03/18 05:36:10;;;;;;;14.70;7.30;;;4.80;99.90;;;;;;5044758;28;20494;-69
2022/03/18 05:38:35;;;;;;;13.57;6.50;;;4.80;99.90;;;;;;5056802;28;20036;-69
2022/03/18 05:41:01;;;;;;;11.83;5.63;;;4.80;99.90;;;;;;5044475;28;20029;-69
2022/03/18 05:43:26;;;;;;;12.30;6.10;;;4.80;99.90;;;;;;5040909;28;20116;-69
2022/03/18 05:45:54;;;;;;;15.77;6.53;;;4.80;99.90;;;;;;5042579;28;20489;-69
2022/03/18 05:48:20;;;;;;;10.10;6.32;;;4.70;99.90;;;;;;5044845;28;20072;-69
2022/03/18 05:50:45;;;;;;;16.93;7.40;;;4.70;99.90;;;;;;5043480;28;20037;-69
2022/03/18 05:53:12;;;;;;;13.63;6.47;;;4.70;99.90;;;;;;5042749;28;20547;-69
2022/03/18 05:58:22;;;;;;;14.45;6.93;;;4.60;99.90;;;;;;5047109;28;20041;-69
2022/03/18 06:00:48;;;;;;;11.70;6.90;;;4.60;99.90;;;;;;5045612;28;20378;-69
2022/03/18 06:03:14;;;;;;;13.77;6.88;;;4.60;99.90;;;;;;5046429;28;20544;-69
2022/03/18 06:05:41;;;;;;;12.50;6.70;;;4.60;99.90;;;;;;5044980;28;20116;-69
2022/03/18 06:13:35;;;;;;;11.68;6.88;;;4.60;99.90;;;;;;5038004;28;20053;-69
2022/03/18 06:16:00;;;;;;;12.53;7.43;;;4.60;99.90;;;;;;5061225;28;20047;-69
2022/03/18 06:18:26;;;;;;;17.13;7.67;;;4.60;99.90;;;;;;5045128;28;20592;-69
2022/03/18 06:20:52;;;;;;;14.33;7.57;;;4.60;99.90;;;;;;5045985;28;20037;-69
2022/03/18 06:25:52;;;;;;;14.73;7.18;;;4.60;99.90;;;;;;5100541;28;20887;-80
2022/03/18 06:28:17;;;;;;;14.50;8.20;;;4.50;99.90;;;;;;5068588;28;20039;-80
2022/03/18 06:30:44;;;;;;;14.47;6.70;;;4.60;99.90;;;;;;5095697;28;20062;-80
2022/03/18 06:33:10;;;;;;;14.85;7.55;;;4.60;99.90;;;;;;5083981;28;20027;-80
2022/03/18 06:35:35;;;;;;;18.60;7.97;;;4.70;99.90;;;;;;5080410;28;20574;-79
2022/03/18 06:38:01;;;;;;;15.87;7.03;;;4.70;99.90;;;;;;5084778;28;20767;-80
2022/03/18 06:40:26;;;;;;;20.70;8.30;;;4.70;99.90;;;;;;5080561;28;20043;-79
2022/03/18 06:42:52;;;;;;;17.10;7.33;;;4.70;99.90;;;;;;5083587;28;20032;-79
2022/03/18 06:45:17;;;;;;;17.23;7.83;;;4.80;99.90;;;;;;5079884;28;20117;-78
2022/03/18 06:47:43;;;;;;;11.23;7.70;;;4.80;99.90;;;;;;5084352;28;20035;-79
2022/03/18 06:50:09;;;;;;;22.47;7.93;;;4.80;99.90;;;;;;5083359;28;20043;-79
2022/03/18 06:52:35;;;;;;;16.25;8.00;;;4.80;99.90;;;;;;5082513;28;20081;-79
2022/03/18 06:55:03;;;;;;;15.33;7.93;;;4.90;99.90;;;;;;5107154;27;20164;-79
2022/03/18 06:57:29;;;;;;;18.55;8.57;;;4.90;99.90;;;;;;5083673;28;20731;-79
2022/03/18 06:59:56;;;;;;;17.73;7.77;;;5.00;99.90;;;;;;5073934;28;20085;-79
2022/03/18 07:02:22;;;;;;;14.38;8.32;;;5.00;99.90;;;;;;5091581;28;20031;-79
2022/03/18 07:04:47;;;;;;;21.37;9.40;;;5.10;99.90;;;;;;5086859;28;20631;-79
2022/03/18 07:07:13;;;;;;;20.00;10.33;;;5.10;99.90;;;;;;5069011;28;20450;-78
2022/03/18 07:09:38;;;;;;;18.67;8.83;;;5.20;99.90;;;;;;5079061;28;20035;-79
2022/03/18 07:12:04;;;;;;;13.53;8.23;;;5.30;99.90;;;;;;5087821;28;20038;-79
2022/03/18 07:14:30;;;;;;;20.90;9.45;;;5.30;99.90;;;;;;5081187;28;20132;-79
2022/03/18 07:19:39;;;;;;;15.95;8.57;;;5.40;99.90;;;;;;5085777;28;20040;-79
2022/03/18 07:22:06;;;;;;;16.53;8.87;;;5.50;99.90;;;;;;5067278;28;20429;-79
2022/03/18 07:24:31;;;;;;;19.80;9.25;;;5.50;99.90;;;;;;5103022;27;20070;-80
2022/03/18 07:26:57;;;;;;;20.65;10.43;;;5.60;99.90;;;;;;5097725;28;20957;-79
2022/03/18 07:29:23;;;;;;;16.87;9.37;;;5.70;99.90;;;;;;5081524;28;20031;-80
2022/03/18 07:31:51;;;;;;;15.20;9.17;;;5.70;99.90;;;;;;5078662;28;20036;-79
2022/03/18 07:34:20;;;;;;;16.63;9.38;;;5.80;99.90;;;;;;5095523;28;20043;-79
2022/03/18 07:36:45;;;;;;;17.10;9.82;;;5.90;99.90;;;;;;5083578;28;20044;-79
2022/03/18 07:39:13;;;;;;;21.73;9.60;;;6.00;99.90;;;;;;5081812;28;20088;-79
2022/03/18 07:41:39;;;;;;;16.63;9.50;;;6.10;99.90;;;;;;5086577;28;20058;-80
2022/03/18 07:44:05;;;;;;;16.27;8.63;;;6.20;99.90;;;;;;5091133;28;20134;-79
2022/03/18 07:46:30;;;;;;;15.63;8.47;;;6.30;99.90;;;;;;5085721;28;20040;-79
2022/03/18 07:48:56;;;;;;;23.87;9.20;;;6.40;99.90;;;;;;5083316;28;20043;-79
2022/03/18 07:51:22;;;;;;;23.33;8.93;;;6.50;99.90;;;;;;5081468;28;20036;-79
2022/03/18 07:53:47;;;;;;;21.67;9.87;;;6.60;99.90;;;;;;5081832;28;20063;-78
2022/03/18 07:56:13;;;;;;;25.87;9.70;;;6.70;99.90;;;;;;5083593;28;20035;-79
2022/03/18 07:58:41;;;;;;;20.40;9.73;;;6.80;99.90;;;;;;5083481;28;20397;-79
2022/03/18 08:01:07;;;;;;;16.70;9.68;;;6.90;99.90;;;;;;5084984;28;20046;-79
2022/03/18 08:03:33;;;;;;;29.07;9.83;;;7.00;99.90;;;;;;5065354;28;20028;-79
2022/03/18 08:05:58;;;;;;;20.23;8.63;;;7.10;99.90;;;;;;5084358;28;20046;-79
2022/03/18 08:08:24;;;;;;;22.33;9.10;;;7.30;99.90;;;;;;5083184;28;20035;-79
2022/03/18 08:10:51;;;;;;;18.77;7.90;;;7.30;99.90;;;;;;5082822;28;20032;-79
2022/03/18 08:13:17;;;;;;;19.15;7.70;;;7.40;99.90;;;;;;5085549;28;20562;-78
2022/03/18 08:15:44;;;;;;;17.33;8.27;;;7.50;99.90;;;;;;5086534;28;20023;-80
2022/03/18 08:18:10;;;;;;;;;;;7.60;99.90;;;;;;5081447;28;20548;-80
2022/03/18 08:20:40;;;;;;;21.23;7.22;;;7.70;99.90;;;;;;5089707;27;20007;-80
2022/03/18 08:23:14;;;;;;;19.42;7.28;;;7.80;99.90;;;;;;5089941;28;20062;-78
2022/03/18 08:25:40;;;;;;;23.52;7.30;;;7.90;99.90;;;;;;5079775;28;20397;-79
2022/03/18 08:28:07;;;;;;;;;;;8.00;99.90;;;;;;5078923;28;20446;-79
2022/03/18 08:30:33;;;;;;;20.23;6.90;;;8.10;99.90;;;;;;5093437;27;19954;-79
2022/03/18 08:32:58;;;;;;;15.73;6.47;;;8.30;99.90;;;;;;5094630;28;20695;-80
2022/03/18 08:35:24;;;;;;;16.93;6.20;;;8.40;99.90;;;;;;5074943;28;20043;-80
2022/03/18 08:38:03;;;;;;;23.10;6.47;;;8.50;99.90;;;;;;5085223;28;20070;-81
2022/03/18 08:40:34;;;;;;;21.13;6.20;;;8.60;99.90;;;;;;5065214;28;20039;-79
2022/03/18 08:43:04;;;;;;;19.52;6.75;;;8.70;99.90;;;;;;5090063;28;20443;-80
2022/03/18 08:45:30;;;;;;;15.70;8.40;;;8.80;99.90;;;;;;5088582;28;20044;-80
2022/03/18 08:47:59;;;;;;;17.17;6.20;;;8.90;99.90;;;;;;5094121;28;20607;-80
2022/03/18 08:50:25;;;;;;;15.55;6.45;;;9.00;99.90;;;;;;5087317;28;20328;-79
2022/03/18 08:52:56;;;;;;;13.50;6.33;;;9.00;99.90;;;;;;5097733;28;20067;-79
2022/03/18 08:55:22;;;;;;;17.23;7.20;;;9.10;99.90;;;;;;5108645;28;20494;-79
2022/03/18 08:57:49;;;;;;;18.13;7.28;;;9.20;99.90;;;;;;5112205;28;20043;-80
2022/03/18 09:00:16;;;;;;;20.67;7.00;;;9.30;99.90;;;;;;5095468;28;20039;-80
2022/03/18 09:02:44;;;;;;;15.27;7.05;;;9.30;99.90;;;;;;5095915;28;20032;-80
2022/03/18 09:05:10;;;;;;;17.27;7.03;;;9.40;99.90;;;;;;5080812;28;20694;-80
2022/03/18 09:07:40;;;;;;;19.70;6.53;;;9.50;99.90;;;;;;5098273;28;20039;-79
2022/03/18 09:10:08;;;;;;;11.52;6.28;;;9.60;99.90;;;;;;5113220;27;20039;-80
2022/03/18 09:12:43;;;;;;;18.48;6.72;;;9.80;99.90;;;;;;5105417;27;20024;-80
2022/03/18 09:15:09;;;;;;;18.15;6.65;;;9.90;99.90;;;;;;5087932;28;20537;-80
2022/03/18 09:17:34;;;;;;;18.50;7.20;;;10.00;99.90;;;;;;5096636;28;20100;-80
2022/03/18 09:20:00;;;;;;;11.33;6.17;;;10.10;99.90;;;;;;5090323;28;20329;-80
2022/03/18 09:22:25;;;;;;;20.73;7.40;;;10.20;99.90;;;;;;5086199;28;20051;-78
2022/03/18 09:24:53;;;;;;;17.13;6.57;;;10.30;99.90;;;;;;5099774;28;20059;-80
2022/03/18 09:27:19;;;;;;;13.77;5.15;;;10.40;99.90;;;;;;5081008;28;20093;-80
2022/03/18 09:29:47;;;;;;;24.20;6.17;;;10.50;99.90;;;;;;5090877;28;20538;-80
2022/03/18 09:32:15;;;;;;;19.98;6.50;;;10.60;99.90;;;;;;5088626;28;20041;-80
2022/03/18 09:34:41;;;;;;;19.15;6.40;;;10.70;99.90;;;;;;5074075;28;20032;-80
2022/03/18 09:37:06;;;;;;;16.42;5.10;;;10.90;99.90;;;;;;5109435;28;20659;-79
2022/03/18 09:39:32;;;;;;;17.43;6.37;;;10.90;99.90;;;;;;5090882;28;20122;-80
2022/03/18 09:41:58;;;;;;;19.33;5.72;;;11.00;99.90;;;;;;5100287;27;20035;-80
2022/03/18 09:44:30;;;;;;;18.25;5.50;;;11.20;99.90;;;;;;5086336;28;20043;-80
2022/03/18 09:46:56;;;;;;;15.82;5.88;;;11.30;99.90;;;;;;5103775;28;20069;-80
2022/03/18 09:49:22;;;;;;;22.10;6.03;;;11.40;99.90;;;;;;5084027;28;20068;-80
2022/03/18 09:51:48;;;;;;;16.13;6.17;;;11.50;99.90;;;;;;5087488;28;20061;-80
2022/03/18 09:54:17;;;;;;;17.10;5.70;;;11.60;99.90;;;;;;5090401;28;20061;-80
2022/03/18 09:56:47;;;;;;;15.02;5.57;;;11.70;99.90;;;;;;5081316;28;20039;-80
2022/03/18 09:59:13;;;;;;;19.52;5.50;;;11.80;99.90;;;;;;5088293;28;20051;-80
2022/03/18 10:01:39;;;;;;;16.95;5.15;;;12.00;99.90;;;;;;5095323;28;20039;-80
2022/03/18 10:04:07;;;;;;;10.90;4.63;;;12.10;99.90;;;;;;5080590;28;20473;-80
2022/03/18 10:06:34;;;;;;;17.30;5.18;;;12.20;99.90;;;;;;5072327;28;20040;-80
2022/03/18 10:09:00;;;;;;;15.85;5.28;;;12.30;99.90;;;;;;5067877;28;20051;-80
2022/03/18 10:11:28;;;;;;;20.23;5.40;;;12.40;99.90;;;;;;5092692;28;20095;-80
2022/03/18 10:14:02;;;;;;;15.35;6.15;;;12.60;99.90;;;;;;5087521;28;20107;-80
2022/03/18 10:16:32;;;;;;;14.05;4.80;;;12.60;99.90;;;;;;5071358;28;20044;-80
2022/03/18 10:18:58;;;;;;;18.60;4.63;;;12.80;99.90;;;;;;5085410;28;20501;-81
2022/03/18 10:21:24;;;;;;;14.05;5.13;;;12.90;99.90;;;;;;5085706;28;20112;-80
2022/03/18 10:23:49;;;;;;;20.13;5.15;;;13.00;99.90;;;;;;5085664;28;20126;-80
2022/03/18 10:26:15;;;;;;;13.88;5.50;;;13.10;99.90;;;;;;5070932;28;20274;-80
2022/03/18 10:28:43;;;;;;;14.93;5.10;;;13.30;99.90;;;;;;5083900;28;20028;-81
2022/03/18 10:31:14;;;;;;;16.67;5.05;;;13.40;99.90;;;;;;5086570;28;20686;-80
2022/03/18 10:37:04;;;;;;;16.88;4.88;;;13.60;99.90;;;;;;5080597;28;20044;-80
2022/03/18 10:39:40;;;;;;;11.60;4.60;;;13.60;99.90;;;;;;5085254;28;20066;-81
2022/03/18 10:42:09;;;;;;;14.43;5.40;;;13.70;99.90;;;;;;5098227;28;20036;-80
2022/03/18 10:45:10;;;;;;;12.80;5.13;;;13.80;99.90;;;;;;5082478;28;20036;-80
2022/03/18 10:47:42;;;;;;;9.27;4.40;;;13.90;99.90;;;;;;5085564;28;20047;-80
2022/03/18 10:50:11;;;;;;;14.68;5.47;;;14.00;99.90;;;;;;5085813;28;20141;-82
2022/03/18 10:52:46;;;;;;;13.07;4.75;;;14.10;99.90;;;;;;5070742;28;20573;-82
2022/03/18 10:55:26;;;;;;;18.20;5.38;;;14.20;99.90;;;;;;5087740;28;20130;-81
2022/03/18 10:58:06;;;;;;;13.20;5.80;;;14.30;99.90;;;;;;5087091;28;20047;-81
2022/03/18 11:00:34;;;;;;;14.38;5.07;;;14.50;99.90;;;;;;5098904;28;20047;-80
2022/03/18 11:03:03;;;;;;;17.25;5.22;;;14.60;99.90;;;;;;5081417;28;20050;-81
2022/03/18 11:05:33;;;;;;;14.43;5.15;;;14.70;99.90;;;;;;5071625;28;20043;-81
2022/03/18 11:08:05;;;;;;;17.77;4.07;;;14.80;99.90;;;;;;5079151;28;20039;-81
2022/03/18 11:13:23;;;;;;;12.80;4.40;;;15.20;99.90;;;;;;5088887;27;20085;-81
2022/03/18 11:15:50;;;;;;;16.33;4.57;;;15.20;99.90;;;;;;5079760;28;20048;-80
2022/03/18 11:18:15;;;;;;;14.93;4.78;;;15.20;99.90;;;;;;5083250;28;20059;-81
2022/03/18 11:20:43;;;;;;;15.25;4.88;;;15.30;99.90;;;;;;5084147;28;20078;-81
2022/03/18 11:23:22;;;;;;;13.82;4.57;;;15.40;99.90;;;;;;5063965;28;20035;-80
2022/03/18 11:25:51;;;;;;;17.17;4.90;;;15.50;99.90;;;;;;5081043;28;20131;-81
2022/03/18 11:28:18;;;;;;;16.00;5.30;;;15.60;99.90;;;;;;5085770;28;20438;-82
2022/03/18 11:30:47;;;;;;;16.45;4.00;;;15.70;99.90;;;;;;5087623;28;20047;-81
2022/03/18 11:33:15;;;;;;;12.80;3.65;;;15.70;99.90;;;;;;5083434;28;20103;-80
2022/03/18 11:35:50;;;;;;;13.25;3.63;;;15.60;99.90;;;;;;5072355;28;20126;-80
2022/03/18 11:38:25;;;;;;;16.25;4.95;;;15.60;99.90;;;;;;5087056;28;20837;-80
2022/03/18 11:40:59;;;;;;;17.58;4.60;;;15.70;99.90;;;;;;5068002;28;20035;-81
2022/03/18 11:43:49;;;;;;;19.15;6.40;;;15.70;99.90;;;;;;5064589;28;20048;-79
2022/03/18 11:46:17;;;;;;;20.35;4.28;;;15.80;99.90;;;;;;5100836;27;20040;-81
2022/03/18 11:48:46;;;;;;;12.18;3.95;;;15.80;99.90;;;;;;5085902;28;20045;-81
2022/03/18 11:51:35;;;;;;;16.60;3.45;;;15.70;98.60;;;;;;5075270;28;20054;-80
2022/03/18 11:54:23;;;;;;;14.65;4.18;;;15.60;97.30;;;;;;5075726;28;20879;-80
2022/03/18 11:56:54;;;;;;;15.57;4.15;;;15.70;97.00;;;;;;5082101;28;20527;-80
2022/03/18 11:59:25;;;;;;;15.70;3.60;;;15.70;97.80;;;;;;5095749;28;20681;-80
2022/03/18 12:02:04;;;;;;;12.27;3.38;;;15.80;96.80;;;;;;5074557;28;20396;-79
2022/03/18 12:05:08;;;;;;;13.80;2.90;;;15.80;94.80;;;;;;5074377;28;20043;-81
2022/03/18 12:07:32;;;;;;;11.82;2.80;;;15.80;93.90;;;;;;5074692;28;20093;-80
2022/03/18 12:10:02;;;;;;;11.32;3.50;;;15.80;93.00;;;;;;5085873;28;20047;-81
2022/03/18 12:12:40;;;;;;;11.02;3.05;;;15.90;95.00;;;;;;5078825;28;20039;-80
2022/03/18 12:15:11;;;;;;;12.80;3.22;;;15.90;92.50;;;;;;5095434;28;20040;-80
2022/03/18 12:17:53;;;;;;;7.88;3.35;;;15.80;91.70;;;;;;5080317;28;20065;-81
2022/03/18 12:20:34;;;;;;;15.23;3.03;;;15.60;91.90;;;;;;5073920;28;20048;-81
2022/03/18 12:23:08;;;;;;;11.60;3.08;;;15.60;95.00;;;;;;5093975;28;20792;-81
2022/03/18 12:25:45;;;;;;;10.77;2.93;;;15.70;92.50;;;;;;5094050;22;20433;-86
2022/03/18 12:28:15;;;;;;;12.82;2.45;;;16.00;89.70;;;;;;5060390;28;20298;-85
2022/03/18 12:30:41;;;;;;;10.63;2.42;;;16.10;90.10;;;;;;5059756;28;20138;-86
2022/03/18 12:33:15;;;;;;;11.35;2.72;;;16.10;89.20;;;;;;5043446;28;20040;-86
2022/03/18 12:36:13;;;;;;;11.52;3.30;;;15.90;89.30;;;;;;5056945;28;20047;-86
2022/03/18 12:38:46;;;;;;;14.93;3.72;;;15.90;87.10;;;;;;5053979;28;20044;-86
2022/03/18 12:41:12;;;;;;;12.30;2.40;;;16.00;90.80;;;;;;5043186;28;20446;-86
2022/03/18 12:43:47;;;;;;;;;;;;;;;;;;;;;
2022/03/18 12:46:27;;;;;;;15.50;3.25;;;16.20;90.20;;;;;;5058624;28;20142;-86
2022/03/18 12:48:56;;;;;;;15.60;2.80;;;16.30;88.00;;;;;;5061910;28;20620;-86
2022/03/18 12:51:51;;;;;;;10.18;2.03;;;16.50;87.00;;;;;;5057580;28;20445;-86
2022/03/18 12:54:29;;;;;;;;;;;;;;;;;;;;;
2022/03/18 12:57:15;;;;;;;12.27;2.92;;;16.80;82.10;;;;;;5056400;28;20052;-86
2022/03/18 12:59:43;;;;;;;10.85;2.30;;;16.90;80.90;;;;;;5048459;28;20047;-86
2022/03/18 13:02:17;;;;;;;14.82;2.95;;;17.00;76.20;;;;;;5055229;28;20059;-87
2022/03/18 13:04:42;;;;;;;11.35;2.50;;;16.90;76.10;;;;;;5048114;28;20220;-86
2022/03/18 13:07:13;;;;;;;10.02;2.85;;;16.80;78.10;;;;;;5068648;28;20121;-86
2022/03/18 13:09:48;;;;;;;13.80;3.05;;;16.80;78.50;;;;;;5081258;28;20036;-85
2022/03/18 13:12:44;;;;;;;9.43;2.55;;;16.90;76.40;;;;;;5056538;28;20401;-85
2022/03/18 13:15:17;;;;;;;24.02;4.18;;;17.00;71.40;;;;;;5035724;28;20094;-86
2022/03/18 13:17:47;;;;;;;16.45;3.58;;;17.00;73.30;;;;;;5062668;28;20252;-86
2022/03/18 13:20:28;;;;;;;8.40;2.63;;;16.80;72.90;;;;;;5064587;28;20040;-86
2022/03/18 13:23:02;;;;;;;14.95;3.47;;;16.80;74.60;;;;;;5063032;28;20072;-85
2022/03/18 13:25:28;;;;;;;13.77;3.78;;;16.90;75.90;;;;;;5060098;28;20518;-86
2022/03/18 13:27:54;;;;;;;;;;;16.80;75.00;;;;;;5062937;28;20044;-84
2022/03/18 13:33:16;;;;;;;17.77;2.95;;;16.70;75.00;;;;;;5061931;28;20222;-86
2022/03/18 13:35:47;;;;;;;15.00;2.70;;;16.70;75.30;;;;;;5056116;28;20457;-85
2022/03/18 13:38:23;;;;;;;12.27;2.55;;;16.70;75.30;;;;;;5059313;28;20559;-85
2022/03/18 13:41:04;;;;;;;13.93;2.67;;;16.90;74.20;;;;;;5065535;28;20040;-86
2022/03/18 13:43:35;;;;;;;9.80;2.65;;;16.90;73.20;;;;;;5063115;28;20105;-85
2022/03/18 13:46:11;;;;;;;15.30;2.85;;;16.90;74.90;;;;;;5066898;28;20032;-85
2022/03/18 13:48:37;;;;;;;11.48;3.10;;;17.00;72.80;;;;;;5078124;28;20043;-86
2022/03/18 13:51:06;;;;;;;16.15;3.55;;;16.90;74.00;;;;;;5075587;28;20062;-85